Alcolu, South Carolina
Current Conditions -  °F | °C
As of 3:15 PM on Wednesday 28 Jan 2015 (Local Time) from KMNI Reporting Station
Clear Clear  
Wind Chill: 44°   Ceiling: Unl
Heat Index: 48°   Visibility: 10mi
Dew Point: 19°   Wind: 9mph
Humidity: 32%   Direction: 350°N
Pressure: 30.24"   Gusts: NA
Location:  33.75°N, 80.21°W
Report Text: KMNI 282015Z AUTO 35008KT 10SM CLR 09/M07 A3024 RMK AO2
Loading
Personal Weather Stations






























Interactive Weather Map New forecast layout! Learn more

10-Day Weather Forecast

Advertisements
Track Severe Weather on mobile